sensor_id;sensor_type;location;lat;lon;timestamp;P1;durP1;ratioP1;P2;durP2;ratioP2
76023;SDS011;64719;52.124;6.226;2023-07-28T00:02:12;13.95;;;7.13;;
76023;SDS011;64719;52.124;6.226;2023-07-28T00:04:38;12.93;;;6.93;;
76023;SDS011;64719;52.124;6.226;2023-07-28T00:07:05;13.73;;;7.07;;
76023;SDS011;64719;52.124;6.226;2023-07-28T00:09:32;13.65;;;7.38;;
76023;SDS011;64719;52.124;6.226;2023-07-28T00:11:58;13.60;;;6.97;;
76023;SDS011;64719;52.124;6.226;2023-07-28T00:14:27;13.20;;;7.07;;
76023;SDS011;64719;52.124;6.226;2023-07-28T00:19:22;14.60;;;7.32;;
76023;SDS011;64719;52.124;6.226;2023-07-28T00:21:48;14.30;;;7.60;;
76023;SDS011;64719;52.124;6.226;2023-07-28T00:24:16;13.20;;;7.45;;
76023;SDS011;64719;52.124;6.226;2023-07-28T00:26:43;12.93;;;6.78;;
76023;SDS011;64719;52.124;6.226;2023-07-28T00:29:10;12.98;;;7.32;;
76023;SDS011;64719;52.124;6.226;2023-07-28T00:31:38;18.58;;;6.88;;
76023;SDS011;64719;52.124;6.226;2023-07-28T00:34:05;14.30;;;7.57;;
76023;SDS011;64719;52.124;6.226;2023-07-28T00:36:31;14.57;;;7.00;;
76023;SDS011;64719;52.124;6.226;2023-07-28T00:38:58;14.25;;;7.38;;
76023;SDS011;64719;52.124;6.226;2023-07-28T00:41:24;14.25;;;7.15;;
76023;SDS011;64719;52.124;6.226;2023-07-28T00:43:51;15.55;;;8.13;;
76023;SDS011;64719;52.124;6.226;2023-07-28T00:46:17;13.85;;;7.97;;
76023;SDS011;64719;52.124;6.226;2023-07-28T00:48:45;14.38;;;7.65;;
76023;SDS011;64719;52.124;6.226;2023-07-28T00:53:39;14.48;;;6.78;;
76023;SDS011;64719;52.124;6.226;2023-07-28T00:56:06;15.63;;;7.15;;
76023;SDS011;64719;52.124;6.226;2023-07-28T00:58:33;14.85;;;6.93;;
76023;SDS011;64719;52.124;6.226;2023-07-28T01:01:00;14.02;;;7.65;;
76023;SDS011;64719;52.124;6.226;2023-07-28T01:03:27;12.68;;;6.88;;
76023;SDS011;64719;52.124;6.226;2023-07-28T01:05:57;14.95;;;7.20;;
76023;SDS011;64719;52.124;6.226;2023-07-28T01:08:34;15.90;;;7.50;;
76023;SDS011;64719;52.124;6.226;2023-07-28T01:11:05;13.40;;;7.28;;
76023;SDS011;64719;52.124;6.226;2023-07-28T01:13:31;14.25;;;6.80;;
76023;SDS011;64719;52.124;6.226;2023-07-28T01:15:58;13.85;;;7.07;;
76023;SDS011;64719;52.124;6.226;2023-07-28T01:20:52;12.27;;;6.60;;
76023;SDS011;64719;52.124;6.226;2023-07-28T01:23:26;12.85;;;6.43;;
76023;SDS011;64719;52.124;6.226;2023-07-28T01:26:03;13.05;;;7.68;;
76023;SDS011;64719;52.124;6.226;2023-07-28T01:28:34;13.70;;;6.57;;
76023;SDS011;64719;52.124;6.226;2023-07-28T01:31:01;13.27;;;6.80;;
76023;SDS011;64719;52.124;6.226;2023-07-28T01:33:28;13.82;;;7.15;;
76023;SDS011;64719;52.124;6.226;2023-07-28T01:35:55;14.95;;;7.57;;
76023;SDS011;64719;52.124;6.226;2023-07-28T01:38:21;13.18;;;7.10;;
76023;SDS011;64719;52.124;6.226;2023-07-28T01:40:48;13.43;;;7.35;;
76023;SDS011;64719;52.124;6.226;2023-07-28T01:43:15;17.25;;;7.43;;
76023;SDS011;64719;52.124;6.226;2023-07-28T01:45:42;14.05;;;6.63;;
76023;SDS011;64719;52.124;6.226;2023-07-28T01:48:09;15.70;;;7.63;;
76023;SDS011;64719;52.124;6.226;2023-07-28T01:50:35;14.40;;;6.65;;
76023;SDS011;64719;52.124;6.226;2023-07-28T01:53:03;16.92;;;7.32;;
76023;SDS011;64719;52.124;6.226;2023-07-28T01:55:30;19.05;;;7.63;;
76023;SDS011;64719;52.124;6.226;2023-07-28T01:57:58;18.25;;;8.27;;
76023;SDS011;64719;52.124;6.226;2023-07-28T02:00:25;18.10;;;7.60;;
76023;SDS011;64719;52.124;6.226;2023-07-28T02:02:54;17.27;;;8.00;;
76023;SDS011;64719;52.124;6.226;2023-07-28T02:05:23;19.45;;;8.27;;
76023;SDS011;64719;52.124;6.226;2023-07-28T02:07:49;19.98;;;8.35;;
76023;SDS011;64719;52.124;6.226;2023-07-28T02:10:16;17.98;;;7.57;;
76023;SDS011;64719;52.124;6.226;2023-07-28T02:12:42;16.98;;;7.45;;
76023;SDS011;64719;52.124;6.226;2023-07-28T02:15:09;15.68;;;7.82;;
76023;SDS011;64719;52.124;6.226;2023-07-28T02:17:36;18.25;;;8.50;;
76023;SDS011;64719;52.124;6.226;2023-07-28T02:20:04;20.52;;;8.63;;
76023;SDS011;64719;52.124;6.226;2023-07-28T02:22:32;23.42;;;8.68;;
76023;SDS011;64719;52.124;6.226;2023-07-28T02:24:58;21.02;;;8.13;;
76023;SDS011;64719;52.124;6.226;2023-07-28T02:27:27;19.38;;;9.57;;
76023;SDS011;64719;52.124;6.226;2023-07-28T02:29:53;19.98;;;9.55;;
76023;SDS011;64719;52.124;6.226;2023-07-28T02:32:20;24.23;;;8.68;;
76023;SDS011;64719;52.124;6.226;2023-07-28T02:34:46;21.35;;;8.73;;
76023;SDS011;64719;52.124;6.226;2023-07-28T02:37:15;23.38;;;8.85;;
76023;SDS011;64719;52.124;6.226;2023-07-28T02:39:42;24.98;;;9.75;;
76023;SDS011;64719;52.124;6.226;2023-07-28T02:42:08;24.35;;;9.80;;
76023;SDS011;64719;52.124;6.226;2023-07-28T02:44:35;25.38;;;10.18;;
76023;SDS011;64719;52.124;6.226;2023-07-28T02:47:01;23.65;;;9.77;;
76023;SDS011;64719;52.124;6.226;2023-07-28T02:49:28;27.08;;;10.75;;
76023;SDS011;64719;52.124;6.226;2023-07-28T02:51:55;24.75;;;10.23;;
76023;SDS011;64719;52.124;6.226;2023-07-28T02:54:23;27.80;;;10.65;;
76023;SDS011;64719;52.124;6.226;2023-07-28T02:56:50;26.77;;;10.48;;
76023;SDS011;64719;52.124;6.226;2023-07-28T02:59:16;23.35;;;10.80;;
76023;SDS011;64719;52.124;6.226;2023-07-28T03:01:43;28.25;;;10.32;;
76023;SDS011;64719;52.124;6.226;2023-07-28T03:04:09;23.10;;;10.40;;
76023;SDS011;64719;52.124;6.226;2023-07-28T03:06:36;22.55;;;9.07;;
76023;SDS011;64719;52.124;6.226;2023-07-28T03:09:03;23.55;;;10.18;;
76023;SDS011;64719;52.124;6.226;2023-07-28T03:11:31;23.63;;;10.25;;
76023;SDS011;64719;52.124;6.226;2023-07-28T03:13:57;27.02;;;10.80;;
76023;SDS011;64719;52.124;6.226;2023-07-28T03:16:24;25.13;;;9.82;;
76023;SDS011;64719;52.124;6.226;2023-07-28T03:18:50;23.02;;;9.90;;
76023;SDS011;64719;52.124;6.226;2023-07-28T03:21:17;26.58;;;9.65;;
76023;SDS011;64719;52.124;6.226;2023-07-28T03:23:43;24.48;;;11.18;;
76023;SDS011;64719;52.124;6.226;2023-07-28T03:26:10;25.05;;;10.23;;
76023;SDS011;64719;52.124;6.226;2023-07-28T03:28:38;23.98;;;9.80;;
76023;SDS011;64719;52.124;6.226;2023-07-28T03:31:04;26.88;;;10.70;;
76023;SDS011;64719;52.124;6.226;2023-07-28T03:33:31;29.10;;;11.15;;
76023;SDS011;64719;52.124;6.226;2023-07-28T03:35:57;26.45;;;10.23;;
76023;SDS011;64719;52.124;6.226;2023-07-28T03:38:24;29.48;;;11.48;;
76023;SDS011;64719;52.124;6.226;2023-07-28T03:40:50;31.58;;;12.73;;
76023;SDS011;64719;52.124;6.226;2023-07-28T03:43:17;29.90;;;11.50;;
76023;SDS011;64719;52.124;6.226;2023-07-28T03:45:45;29.75;;;11.65;;
76023;SDS011;64719;52.124;6.226;2023-07-28T03:48:11;35.05;;;12.18;;
76023;SDS011;64719;52.124;6.226;2023-07-28T03:50:41;31.92;;;13.43;;
76023;SDS011;64719;52.124;6.226;2023-07-28T03:53:07;30.77;;;11.13;;
76023;SDS011;64719;52.124;6.226;2023-07-28T03:55:34;32.35;;;12.18;;
76023;SDS011;64719;52.124;6.226;2023-07-28T03:58:01;31.75;;;11.88;;
76023;SDS011;64719;52.124;6.226;2023-07-28T04:00:28;30.63;;;12.40;;
76023;SDS011;64719;52.124;6.226;2023-07-28T04:02:56;31.60;;;12.60;;
76023;SDS011;64719;52.124;6.226;2023-07-28T04:05:23;33.92;;;11.98;;
76023;SDS011;64719;52.124;6.226;2023-07-28T04:07:49;34.08;;;12.38;;
76023;SDS011;64719;52.124;6.226;2023-07-28T04:10:16;28.13;;;12.50;;
76023;SDS011;64719;52.124;6.226;2023-07-28T04:12:42;34.60;;;12.73;;
76023;SDS011;64719;52.124;6.226;2023-07-28T04:15:09;28.50;;;12.23;;
76023;SDS011;64719;52.124;6.226;2023-07-28T04:17:36;33.95;;;13.15;;
76023;SDS011;64719;52.124;6.226;2023-07-28T04:20:05;33.42;;;11.88;;
76023;SDS011;64719;52.124;6.226;2023-07-28T04:22:32;27.85;;;11.80;;
76023;SDS011;64719;52.124;6.226;2023-07-28T04:24:59;29.02;;;12.43;;
76023;SDS011;64719;52.124;6.226;2023-07-28T04:27:25;31.73;;;12.10;;
76023;SDS011;64719;52.124;6.226;2023-07-28T04:29:52;32.28;;;13.65;;
76023;SDS011;64719;52.124;6.226;2023-07-28T04:32:18;32.25;;;13.13;;
76023;SDS011;64719;52.124;6.226;2023-07-28T04:34:45;32.83;;;13.50;;
76023;SDS011;64719;52.124;6.226;2023-07-28T04:37:13;40.78;;;14.10;;
76023;SDS011;64719;52.124;6.226;2023-07-28T04:39:39;37.63;;;13.90;;
76023;SDS011;64719;52.124;6.226;2023-07-28T04:42:06;37.40;;;14.70;;
76023;SDS011;64719;52.124;6.226;2023-07-28T04:44:32;37.20;;;13.65;;
76023;SDS011;64719;52.124;6.226;2023-07-28T04:46:59;37.38;;;14.48;;
76023;SDS011;64719;52.124;6.226;2023-07-28T04:49:25;35.45;;;13.93;;
76023;SDS011;64719;52.124;6.226;2023-07-28T04:51:52;38.92;;;14.32;;
76023;SDS011;64719;52.124;6.226;2023-07-28T04:54:20;39.90;;;14.45;;
76023;SDS011;64719;52.124;6.226;2023-07-28T04:56:46;37.42;;;13.30;;
76023;SDS011;64719;52.124;6.226;2023-07-28T04:59:14;44.88;;;14.10;;
76023;SDS011;64719;52.124;6.226;2023-07-28T05:01:41;34.70;;;13.43;;
76023;SDS011;64719;52.124;6.226;2023-07-28T05:04:08;39.00;;;14.27;;
76023;SDS011;64719;52.124;6.226;2023-07-28T05:06:34;35.17;;;14.10;;
76023;SDS011;64719;52.124;6.226;2023-07-28T05:09:01;38.13;;;13.80;;
76023;SDS011;64719;52.124;6.226;2023-07-28T05:11:29;32.67;;;13.30;;
76023;SDS011;64719;52.124;6.226;2023-07-28T05:13:55;37.40;;;13.88;;
76023;SDS011;64719;52.124;6.226;2023-07-28T05:16:22;30.38;;;12.60;;
76023;SDS011;64719;52.124;6.226;2023-07-28T05:18:48;32.95;;;12.65;;
76023;SDS011;64719;52.124;6.226;2023-07-28T05:21:15;32.95;;;12.43;;
76023;SDS011;64719;52.124;6.226;2023-07-28T05:23:41;36.95;;;12.65;;
76023;SDS011;64719;52.124;6.226;2023-07-28T05:26:08;35.65;;;12.82;;
76023;SDS011;64719;52.124;6.226;2023-07-28T05:28:36;33.13;;;14.10;;
76023;SDS011;64719;52.124;6.226;2023-07-28T05:31:03;34.15;;;12.68;;
76023;SDS011;64719;52.124;6.226;2023-07-28T05:33:30;31.77;;;13.07;;
76023;SDS011;64719;52.124;6.226;2023-07-28T05:36:00;30.80;;;12.50;;
76023;SDS011;64719;52.124;6.226;2023-07-28T05:38:27;31.20;;;12.57;;
76023;SDS011;64719;52.124;6.226;2023-07-28T05:40:56;36.15;;;14.00;;
76023;SDS011;64719;52.124;6.226;2023-07-28T05:43:23;32.10;;;13.18;;
76023;SDS011;64719;52.124;6.226;2023-07-28T05:45:51;32.28;;;14.07;;
76023;SDS011;64719;52.124;6.226;2023-07-28T05:48:17;32.08;;;13.38;;
76023;SDS011;64719;52.124;6.226;2023-07-28T05:50:43;30.35;;;12.55;;
76023;SDS011;64719;52.124;6.226;2023-07-28T05:53:10;31.77;;;13.63;;
76023;SDS011;64719;52.124;6.226;2023-07-28T05:55:38;30.80;;;13.68;;
76023;SDS011;64719;52.124;6.226;2023-07-28T05:58:05;32.75;;;14.13;;
76023;SDS011;64719;52.124;6.226;2023-07-28T06:00:31;33.90;;;14.38;;
76023;SDS011;64719;52.124;6.226;2023-07-28T06:02:59;33.13;;;13.63;;
76023;SDS011;64719;52.124;6.226;2023-07-28T06:05:26;36.10;;;13.65;;
76023;SDS011;64719;52.124;6.226;2023-07-28T06:07:53;34.65;;;14.68;;
76023;SDS011;64719;52.124;6.226;2023-07-28T06:10:19;33.70;;;14.00;;
76023;SDS011;64719;52.124;6.226;2023-07-28T06:12:46;35.80;;;12.82;;
76023;SDS011;64719;52.124;6.226;2023-07-28T06:15:12;37.63;;;14.23;;
76023;SDS011;64719;52.124;6.226;2023-07-28T06:17:39;34.50;;;14.30;;
76023;SDS011;64719;52.124;6.226;2023-07-28T06:20:08;36.28;;;13.68;;
76023;SDS011;64719;52.124;6.226;2023-07-28T06:22:35;33.00;;;13.77;;
76023;SDS011;64719;52.124;6.226;2023-07-28T06:25:02;34.33;;;13.38;;
76023;SDS011;64719;52.124;6.226;2023-07-28T06:27:28;31.40;;;13.68;;
76023;SDS011;64719;52.124;6.226;2023-07-28T06:29:55;28.45;;;12.63;;
76023;SDS011;64719;52.124;6.226;2023-07-28T06:32:22;30.15;;;12.85;;
76023;SDS011;64719;52.124;6.226;2023-07-28T06:34:49;29.17;;;12.27;;
76023;SDS011;64719;52.124;6.226;2023-07-28T06:37:18;31.67;;;13.25;;
76023;SDS011;64719;52.124;6.226;2023-07-28T06:47:04;27.63;;;12.02;;
76023;SDS011;64719;52.124;6.226;2023-07-28T06:49:30;25.33;;;12.05;;
76023;SDS011;64719;52.124;6.226;2023-07-28T06:51:57;28.67;;;11.90;;
76023;SDS011;64719;52.124;6.226;2023-07-28T06:54:25;24.58;;;11.75;;
76023;SDS011;64719;52.124;6.226;2023-07-28T06:56:51;24.92;;;11.65;;
76023;SDS011;64719;52.124;6.226;2023-07-28T06:59:18;23.17;;;11.00;;
76023;SDS011;64719;52.124;6.226;2023-07-28T07:01:44;23.15;;;10.60;;
76023;SDS011;64719;52.124;6.226;2023-07-28T07:04:11;24.25;;;12.00;;
76023;SDS011;64719;52.124;6.226;2023-07-28T07:06:37;23.55;;;10.82;;
76023;SDS011;64719;52.124;6.226;2023-07-28T07:09:04;23.30;;;11.00;;
76023;SDS011;64719;52.124;6.226;2023-07-28T07:11:32;22.45;;;9.93;;
76023;SDS011;64719;52.124;6.226;2023-07-28T07:13:59;25.70;;;10.65;;
76023;SDS011;64719;52.124;6.226;2023-07-28T07:16:25;18.95;;;9.65;;
76023;SDS011;64719;52.124;6.226;2023-07-28T07:18:52;19.92;;;10.70;;
76023;SDS011;64719;52.124;6.226;2023-07-28T07:21:19;21.27;;;9.35;;
76023;SDS011;64719;52.124;6.226;2023-07-28T07:23:45;21.02;;;10.13;;
76023;SDS011;64719;52.124;6.226;2023-07-28T07:26:12;21.98;;;10.02;;
76023;SDS011;64719;52.124;6.226;2023-07-28T07:28:40;17.48;;;10.05;;
76023;SDS011;64719;52.124;6.226;2023-07-28T07:31:11;20.42;;;9.55;;
76023;SDS011;64719;52.124;6.226;2023-07-28T07:33:38;17.33;;;8.77;;
76023;SDS011;64719;52.124;6.226;2023-07-28T07:36:04;19.45;;;9.25;;
76023;SDS011;64719;52.124;6.226;2023-07-28T07:38:31;16.70;;;8.50;;
76023;SDS011;64719;52.124;6.226;2023-07-28T07:40:57;17.15;;;8.80;;
76023;SDS011;64719;52.124;6.226;2023-07-28T07:43:24;16.95;;;9.68;;
76023;SDS011;64719;52.124;6.226;2023-07-28T07:45:52;15.13;;;8.13;;
76023;SDS011;64719;52.124;6.226;2023-07-28T07:48:19;13.63;;;7.22;;
76023;SDS011;64719;52.124;6.226;2023-07-28T07:50:46;15.90;;;8.55;;
76023;SDS011;64719;52.124;6.226;2023-07-28T07:53:12;16.30;;;8.52;;
76023;SDS011;64719;52.124;6.226;2023-07-28T07:55:39;13.88;;;7.55;;
76023;SDS011;64719;52.124;6.226;2023-07-28T07:58:06;13.52;;;7.63;;
76023;SDS011;64719;52.124;6.226;2023-07-28T08:00:33;15.98;;;8.73;;
76023;SDS011;64719;52.124;6.226;2023-07-28T08:03:01;15.50;;;8.27;;
76023;SDS011;64719;52.124;6.226;2023-07-28T08:07:54;15.80;;;8.60;;
76023;SDS011;64719;52.124;6.226;2023-07-28T08:10:20;17.58;;;8.80;;
76023;SDS011;64719;52.124;6.226;2023-07-28T08:12:47;18.92;;;9.20;;
76023;SDS011;64719;52.124;6.226;2023-07-28T08:15:14;17.45;;;9.05;;
76023;SDS011;64719;52.124;6.226;2023-07-28T08:17:40;13.27;;;8.13;;
76023;SDS011;64719;52.124;6.226;2023-07-28T08:20:09;17.45;;;8.77;;
76023;SDS011;64719;52.124;6.226;2023-07-28T08:22:36;16.02;;;9.38;;
76023;SDS011;64719;52.124;6.226;2023-07-28T08:25:03;18.77;;;9.65;;
76023;SDS011;64719;52.124;6.226;2023-07-28T08:27:30;15.57;;;9.30;;
76023;SDS011;64719;52.124;6.226;2023-07-28T08:29:56;18.63;;;9.27;;
76023;SDS011;64719;52.124;6.226;2023-07-28T08:32:23;18.80;;;9.75;;
76023;SDS011;64719;52.124;6.226;2023-07-28T08:34:49;17.77;;;9.20;;
76023;SDS011;64719;52.124;6.226;2023-07-28T08:37:17;14.55;;;9.52;;
76023;SDS011;64719;52.124;6.226;2023-07-28T08:42:10;15.32;;;8.88;;
76023;SDS011;64719;52.124;6.226;2023-07-28T08:44:37;18.27;;;9.50;;
76023;SDS011;64719;52.124;6.226;2023-07-28T08:47:04;14.90;;;8.68;;
76023;SDS011;64719;52.124;6.226;2023-07-28T08:49:32;14.90;;;8.32;;
76023;SDS011;64719;52.124;6.226;2023-07-28T08:52:01;13.90;;;8.00;;
76023;SDS011;64719;52.124;6.226;2023-07-28T08:54:30;15.50;;;8.13;;
76023;SDS011;64719;52.124;6.226;2023-07-28T08:56:57;13.20;;;7.88;;
76023;SDS011;64719;52.124;6.226;2023-07-28T08:59:24;15.13;;;8.02;;
76023;SDS011;64719;52.124;6.226;2023-07-28T09:01:52;15.02;;;8.30;;
76023;SDS011;64719;52.124;6.226;2023-07-28T09:04:19;12.23;;;7.60;;
76023;SDS011;64719;52.124;6.226;2023-07-28T09:06:46;16.40;;;7.65;;
76023;SDS011;64719;52.124;6.226;2023-07-28T09:09:13;13.15;;;7.85;;
76023;SDS011;64719;52.124;6.226;2023-07-28T09:11:47;15.65;;;8.15;;
76023;SDS011;64719;52.124;6.226;2023-07-28T09:14:15;15.32;;;8.55;;
76023;SDS011;64719;52.124;6.226;2023-07-28T09:19:09;13.68;;;7.28;;
76023;SDS011;64719;52.124;6.226;2023-07-28T09:21:37;14.07;;;6.88;;
76023;SDS011;64719;52.124;6.226;2023-07-28T09:24:05;15.45;;;8.52;;
76023;SDS011;64719;52.124;6.226;2023-07-28T09:26:38;12.77;;;7.82;;
76023;SDS011;64719;52.124;6.226;2023-07-28T09:29:11;15.63;;;8.35;;
76023;SDS011;64719;52.124;6.226;2023-07-28T09:31:39;21.35;;;9.25;;
76023;SDS011;64719;52.124;6.226;2023-07-28T09:34:06;15.75;;;8.50;;
76023;SDS011;64719;52.124;6.226;2023-07-28T09:36:33;17.10;;;8.88;;
76023;SDS011;64719;52.124;6.226;2023-07-28T09:39:01;14.13;;;8.50;;
76023;SDS011;64719;52.124;6.226;2023-07-28T09:41:29;14.82;;;8.98;;
76023;SDS011;64719;52.124;6.226;2023-07-28T09:43:56;14.07;;;7.72;;
76023;SDS011;64719;52.124;6.226;2023-07-28T09:46:24;14.95;;;8.25;;
76023;SDS011;64719;52.124;6.226;2023-07-28T09:48:54;14.07;;;7.90;;
76023;SDS011;64719;52.124;6.226;2023-07-28T09:51:23;11.95;;;7.28;;
76023;SDS011;64719;52.124;6.226;2023-07-28T09:53:55;11.05;;;6.93;;
76023;SDS011;64719;52.124;6.226;2023-07-28T09:56:27;9.88;;;6.97;;
76023;SDS011;64719;52.124;6.226;2023-07-28T10:01:23;10.70;;;7.03;;
76023;SDS011;64719;52.124;6.226;2023-07-28T10:03:50;12.88;;;7.65;;
76023;SDS011;64719;52.124;6.226;2023-07-28T10:06:17;9.57;;;6.78;;
76023;SDS011;64719;52.124;6.226;2023-07-28T10:08:47;11.85;;;7.72;;
76023;SDS011;64719;52.124;6.226;2023-07-28T10:11:14;9.32;;;6.75;;
76023;SDS011;64719;52.124;6.226;2023-07-28T10:13:41;9.45;;;6.78;;
76023;SDS011;64719;52.124;6.226;2023-07-28T10:16:10;10.63;;;6.32;;
76023;SDS011;64719;52.124;6.226;2023-07-28T10:18:38;10.38;;;7.18;;
76023;SDS011;64719;52.124;6.226;2023-07-28T10:21:06;12.02;;;7.05;;
76023;SDS011;64719;52.124;6.226;2023-07-28T10:23:38;10.10;;;6.60;;
76023;SDS011;64719;52.124;6.226;2023-07-28T10:26:05;9.90;;;6.10;;
76023;SDS011;64719;52.124;6.226;2023-07-28T10:28:32;7.75;;;5.05;;
76023;SDS011;64719;52.124;6.226;2023-07-28T10:31:04;8.07;;;4.85;;
76023;SDS011;64719;52.124;6.226;2023-07-28T10:33:32;6.80;;;4.25;;
76023;SDS011;64719;52.124;6.226;2023-07-28T10:36:09;6.80;;;4.78;;
76023;SDS011;64719;52.124;6.226;2023-07-28T10:38:38;5.97;;;5.20;;
76023;SDS011;64719;52.124;6.226;2023-07-28T10:41:08;5.45;;;4.35;;
76023;SDS011;64719;52.124;6.226;2023-07-28T10:43:37;6.20;;;4.75;;
76023;SDS011;64719;52.124;6.226;2023-07-28T10:46:04;6.63;;;4.60;;
76023;SDS011;64719;52.124;6.226;2023-07-28T10:48:33;6.13;;;4.95;;
76023;SDS011;64719;52.124;6.226;2023-07-28T10:51:02;6.45;;;4.53;;
76023;SDS011;64719;52.124;6.226;2023-07-28T10:53:28;7.80;;;4.72;;
76023;SDS011;64719;52.124;6.226;2023-07-28T10:55:57;8.60;;;5.70;;
76023;SDS011;64719;52.124;6.226;2023-07-28T10:58:24;7.15;;;5.18;;
76023;SDS011;64719;52.124;6.226;2023-07-28T11:00:51;8.07;;;5.22;;
76023;SDS011;64719;52.124;6.226;2023-07-28T11:03:18;7.53;;;5.40;;
76023;SDS011;64719;52.124;6.226;2023-07-28T11:05:45;7.13;;;4.93;;
76023;SDS011;64719;52.124;6.226;2023-07-28T11:08:15;7.78;;;5.68;;
76023;SDS011;64719;52.124;6.226;2023-07-28T11:10:42;7.05;;;5.40;;
76023;SDS011;64719;52.124;6.226;2023-07-28T11:13:09;8.10;;;5.90;;
76023;SDS011;64719;52.124;6.226;2023-07-28T11:15:35;7.78;;;5.63;;
76023;SDS011;64719;52.124;6.226;2023-07-28T11:18:02;5.25;;;4.75;;
76023;SDS011;64719;52.124;6.226;2023-07-28T11:20:30;5.05;;;4.35;;
76023;SDS011;64719;52.124;6.226;2023-07-28T11:22:57;5.22;;;4.00;;
76023;SDS011;64719;52.124;6.226;2023-07-28T11:25:27;5.38;;;3.78;;
76023;SDS011;64719;52.124;6.226;2023-07-28T11:27:54;4.80;;;3.78;;
76023;SDS011;64719;52.124;6.226;2023-07-28T11:30:22;5.35;;;3.30;;
76023;SDS011;64719;52.124;6.226;2023-07-28T11:32:50;5.38;;;3.70;;
76023;SDS011;64719;52.124;6.226;2023-07-28T11:35:18;5.97;;;4.43;;
76023;SDS011;64719;52.124;6.226;2023-07-28T11:37:48;5.97;;;4.00;;
76023;SDS011;64719;52.124;6.226;2023-07-28T11:40:17;5.35;;;4.47;;
76023;SDS011;64719;52.124;6.226;2023-07-28T11:42:46;7.53;;;4.75;;
76023;SDS011;64719;52.124;6.226;2023-07-28T11:45:15;5.63;;;4.80;;
76023;SDS011;64719;52.124;6.226;2023-07-28T11:47:51;5.85;;;4.45;;
76023;SDS011;64719;52.124;6.226;2023-07-28T11:50:24;6.18;;;5.03;;
76023;SDS011;64719;52.124;6.226;2023-07-28T11:52:52;6.97;;;4.82;;
76023;SDS011;64719;52.124;6.226;2023-07-28T11:55:20;7.35;;;5.00;;
76023;SDS011;64719;52.124;6.226;2023-07-28T11:57:48;6.03;;;4.80;;
76023;SDS011;64719;52.124;6.226;2023-07-28T12:00:15;5.93;;;3.97;;
76023;SDS011;64719;52.124;6.226;2023-07-28T12:02:43;4.97;;;3.70;;
76023;SDS011;64719;52.124;6.226;2023-07-28T12:05:13;4.15;;;3.35;;
76023;SDS011;64719;52.124;6.226;2023-07-28T12:07:40;5.05;;;3.55;;
76023;SDS011;64719;52.124;6.226;2023-07-28T12:10:07;4.70;;;3.83;;
76023;SDS011;64719;52.124;6.226;2023-07-28T12:12:41;5.65;;;4.43;;
76023;SDS011;64719;52.124;6.226;2023-07-28T12:15:24;5.47;;;4.95;;
76023;SDS011;64719;52.124;6.226;2023-07-28T12:18:12;5.85;;;4.63;;
76023;SDS011;64719;52.124;6.226;2023-07-28T12:20:40;6.60;;;4.80;;
76023;SDS011;64719;52.124;6.226;2023-07-28T12:23:11;5.90;;;5.13;;
76023;SDS011;64719;52.124;6.226;2023-07-28T12:25:39;5.35;;;4.85;;
76023;SDS011;64719;52.124;6.226;2023-07-28T12:28:05;6.28;;;5.13;;
76023;SDS011;64719;52.124;6.226;2023-07-28T12:30:33;6.18;;;5.50;;
76023;SDS011;64719;52.124;6.226;2023-07-28T12:33:00;5.95;;;5.00;;
76023;SDS011;64719;52.124;6.226;2023-07-28T12:35:27;10.18;;;5.00;;
76023;SDS011;64719;52.124;6.226;2023-07-28T12:37:57;5.20;;;4.57;;
76023;SDS011;64719;52.124;6.226;2023-07-28T12:40:25;6.70;;;4.90;;
76023;SDS011;64719;52.124;6.226;2023-07-28T12:42:53;6.47;;;4.95;;
76023;SDS011;64719;52.124;6.226;2023-07-28T12:45:20;5.82;;;4.50;;
76023;SDS011;64719;52.124;6.226;2023-07-28T12:50:14;7.13;;;5.10;;
76023;SDS011;64719;52.124;6.226;2023-07-28T12:52:41;6.43;;;5.55;;
76023;SDS011;64719;52.124;6.226;2023-07-28T12:55:08;6.35;;;5.38;;
76023;SDS011;64719;52.124;6.226;2023-07-28T12:57:34;6.22;;;5.18;;
76023;SDS011;64719;52.124;6.226;2023-07-28T13:00:01;8.25;;;5.90;;
76023;SDS011;64719;52.124;6.226;2023-07-28T13:02:32;7.35;;;6.13;;
76023;SDS011;64719;52.124;6.226;2023-07-28T13:05:00;7.20;;;5.68;;
76023;SDS011;64719;52.124;6.226;2023-07-28T13:07:27;6.90;;;5.18;;
76023;SDS011;64719;52.124;6.226;2023-07-28T13:09:55;6.53;;;5.03;;
76023;SDS011;64719;52.124;6.226;2023-07-28T13:12:21;6.32;;;5.20;;
76023;SDS011;64719;52.124;6.226;2023-07-28T13:14:48;6.60;;;5.18;;
76023;SDS011;64719;52.124;6.226;2023-07-28T13:17:14;5.65;;;4.93;;
76023;SDS011;64719;52.124;6.226;2023-07-28T13:22:09;7.50;;;5.50;;
76023;SDS011;64719;52.124;6.226;2023-07-28T13:24:36;6.18;;;5.18;;
76023;SDS011;64719;52.124;6.226;2023-07-28T13:27:03;7.03;;;5.05;;
76023;SDS011;64719;52.124;6.226;2023-07-28T13:29:30;6.95;;;5.40;;
76023;SDS011;64719;52.124;6.226;2023-07-28T13:31:57;7.90;;;5.55;;
76023;SDS011;64719;52.124;6.226;2023-07-28T13:34:25;7.22;;;5.65;;
76023;SDS011;64719;52.124;6.226;2023-07-28T13:36:52;7.32;;;5.32;;
76023;SDS011;64719;52.124;6.226;2023-07-28T13:39:20;5.97;;;4.90;;
76023;SDS011;64719;52.124;6.226;2023-07-28T13:41:47;7.00;;;4.63;;
76023;SDS011;64719;52.124;6.226;2023-07-28T13:44:13;6.50;;;4.25;;
76023;SDS011;64719;52.124;6.226;2023-07-28T13:46:40;6.03;;;4.65;;
76023;SDS011;64719;52.124;6.226;2023-07-28T13:49:06;6.47;;;4.72;;
76023;SDS011;64719;52.124;6.226;2023-07-28T13:51:33;5.75;;;4.22;;
76023;SDS011;64719;52.124;6.226;2023-07-28T13:54:00;5.00;;;4.20;;
76023;SDS011;64719;52.124;6.226;2023-07-28T13:56:27;5.18;;;3.97;;
76023;SDS011;64719;52.124;6.226;2023-07-28T13:58:54;5.18;;;3.67;;
76023;SDS011;64719;52.124;6.226;2023-07-28T14:01:21;4.85;;;3.80;;
76023;SDS011;64719;52.124;6.226;2023-07-28T14:03:47;5.57;;;4.20;;
76023;SDS011;64719;52.124;6.226;2023-07-28T14:06:14;5.53;;;4.68;;
76023;SDS011;64719;52.124;6.226;2023-07-28T14:08:40;6.70;;;4.20;;
76023;SDS011;64719;52.124;6.226;2023-07-28T14:11:07;6.43;;;4.22;;
76023;SDS011;64719;52.124;6.226;2023-07-28T14:13:35;5.07;;;4.13;;
76023;SDS011;64719;52.124;6.226;2023-07-28T14:16:01;5.97;;;3.85;;
76023;SDS011;64719;52.124;6.226;2023-07-28T14:18:29;5.22;;;3.83;;
76023;SDS011;64719;52.124;6.226;2023-07-28T14:20:55;7.97;;;4.25;;
76023;SDS011;64719;52.124;6.226;2023-07-28T14:23:22;5.05;;;3.75;;
76023;SDS011;64719;52.124;6.226;2023-07-28T14:25:50;5.18;;;3.75;;
76023;SDS011;64719;52.124;6.226;2023-07-28T14:28:17;4.07;;;3.40;;
76023;SDS011;64719;52.124;6.226;2023-07-28T14:30:45;7.97;;;4.45;;
76023;SDS011;64719;52.124;6.226;2023-07-28T14:33:12;5.57;;;4.03;;
76023;SDS011;64719;52.124;6.226;2023-07-28T14:35:39;5.10;;;4.07;;
76023;SDS011;64719;52.124;6.226;2023-07-28T14:38:06;5.20;;;3.60;;
76023;SDS011;64719;52.124;6.226;2023-07-28T14:40:32;5.03;;;3.88;;
76023;SDS011;64719;52.124;6.226;2023-07-28T14:42:59;5.45;;;3.20;;
76023;SDS011;64719;52.124;6.226;2023-07-28T14:45:25;4.68;;;3.38;;
76023;SDS011;64719;52.124;6.226;2023-07-28T14:47:53;3.95;;;3.33;;
76023;SDS011;64719;52.124;6.226;2023-07-28T14:50:20;6.35;;;3.75;;
76023;SDS011;64719;52.124;6.226;2023-07-28T14:55:14;4.55;;;3.65;;
76023;SDS011;64719;52.124;6.226;2023-07-28T14:57:40;4.63;;;3.25;;
76023;SDS011;64719;52.124;6.226;2023-07-28T15:00:07;4.32;;;3.08;;
76023;SDS011;64719;52.124;6.226;2023-07-28T15:02:35;3.70;;;2.97;;
76023;SDS011;64719;52.124;6.226;2023-07-28T15:05:03;5.22;;;3.28;;
76023;SDS011;64719;52.124;6.226;2023-07-28T15:07:30;4.25;;;3.28;;
76023;SDS011;64719;52.124;6.226;2023-07-28T15:09:56;4.93;;;3.15;;